createdAt,value
2018-05-05T00:00:52.009Z,82.60
2018-05-05T00:03:20.192Z,83.30
2018-05-05T00:05:47.605Z,83.30
2018-05-05T00:08:15.012Z,84.20
2018-05-05T00:10:42.429Z,82.90
2018-05-05T00:13:09.840Z,82.90
2018-05-05T00:15:37.255Z,83.80
2018-05-05T00:18:05.451Z,84.70
2018-05-05T00:20:32.874Z,84.70
2018-05-05T00:23:00.280Z,84.60
2018-05-05T00:25:28.468Z,84.40
2018-05-05T00:27:56.644Z,84.50
2018-05-05T00:30:24.057Z,84.50
2018-05-05T00:32:51.473Z,85.30
2018-05-05T00:35:19.686Z,84.70
2018-05-05T00:37:47.096Z,85.20
2018-05-05T00:40:14.508Z,85.50
2018-05-05T00:42:42.684Z,84.80
2018-05-05T00:45:10.097Z,84.80
2018-05-05T00:47:37.508Z,84.40
2018-05-05T00:50:04.920Z,84.90
2018-05-05T00:52:32.328Z,85.70
2018-05-05T00:54:59.749Z,85.30
2018-05-05T00:57:27.924Z,86.10
2018-05-05T00:59:56.111Z,86.40
2018-05-05T01:02:24.288Z,86.30
2018-05-05T01:04:51.700Z,86.20
2018-05-05T01:07:19.121Z,86.50
2018-05-05T01:09:46.533Z,87.20
2018-05-05T01:12:13.944Z,86.50
2018-05-05T01:14:41.369Z,86.80
2018-05-05T01:17:08.790Z,87.10
2018-05-05T01:19:36.195Z,87.30
2018-05-05T01:22:03.612Z,86.40
2018-05-05T01:24:31.029Z,86.70
2018-05-05T01:26:59.213Z,86.80
2018-05-05T01:29:27.389Z,87.00
2018-05-05T01:31:55.605Z,86.60
2018-05-05T01:34:23.013Z,86.60
2018-05-05T01:36:50.432Z,86.50
2018-05-05T01:39:18.609Z,87.50
2018-05-05T01:41:46.784Z,87.40
2018-05-05T01:44:14.293Z,87.40
2018-05-05T01:46:41.697Z,86.70
2018-05-05T01:49:09.104Z,86.40
2018-05-05T01:51:37.283Z,86.70
2018-05-05T01:54:05.460Z,87.20
2018-05-05T01:56:34.389Z,87.00
2018-05-05T01:59:02.578Z,87.10
2018-05-05T02:01:30.753Z,86.20
2018-05-05T02:03:58.937Z,86.80
2018-05-05T02:06:27.116Z,86.30
2018-05-05T02:08:55.308Z,85.90
2018-05-05T02:11:23.484Z,85.80
2018-05-05T02:13:50.989Z,85.80
2018-05-05T02:16:18.405Z,86.60
2018-05-05T02:18:45.820Z,85.60
2018-05-05T02:21:13.996Z,85.90
2018-05-05T02:23:42.185Z,86.30
2018-05-05T02:26:10.360Z,85.50
2018-05-05T02:28:38.553Z,86.70
2018-05-05T02:31:05.961Z,86.00
2018-05-05T02:33:33.372Z,86.80
2018-05-05T02:36:00.780Z,86.90
2018-05-05T02:38:28.189Z,86.30
2018-05-05T02:40:55.611Z,87.00
2018-05-05T02:43:23.780Z,87.10
2018-05-05T02:45:51.969Z,88.70
2018-05-05T02:48:20.145Z,88.60
2018-05-05T02:50:47.577Z,88.00
2018-05-05T02:53:14.992Z,89.40
2018-05-05T02:55:42.404Z,88.30
2018-05-05T02:58:09.825Z,89.40
2018-05-05T03:00:37.239Z,88.30
2018-05-05T03:03:04.656Z,87.70
2018-05-05T03:05:32.066Z,87.70
2018-05-05T03:07:59.544Z,88.20
2018-05-05T03:10:26.966Z,88.10
2018-05-05T03:12:54.365Z,89.70
2018-05-05T03:15:22.543Z,87.80
2018-05-05T03:17:50.729Z,88.30
2018-05-05T03:20:18.152Z,88.20
2018-05-05T03:22:45.561Z,88.60
2018-05-05T03:25:13.736Z,88.60
2018-05-05T03:27:41.153Z,88.50
2018-05-05T03:30:08.564Z,88.60
2018-05-05T03:32:35.985Z,88.20
2018-05-05T03:35:03.449Z,87.90
2018-05-05T03:37:30.865Z,88.20
2018-05-05T03:39:58.277Z,88.20
2018-05-05T03:42:25.756Z,87.70
2018-05-05T03:44:53.165Z,87.90
2018-05-05T03:47:20.584Z,88.30
2018-05-05T03:49:48.757Z,88.30
2018-05-05T03:52:16.937Z,88.10
2018-05-05T03:54:44.349Z,88.00
2018-05-05T03:57:11.760Z,89.00
2018-05-05T03:59:51.096Z,88.20
2018-05-05T04:02:30.220Z,88.80
2018-05-05T04:08:14.514Z,88.90
2018-05-05T04:10:41.929Z,89.40
2018-05-05T04:13:09.549Z,89.10
2018-05-05T04:15:36.957Z,88.80
2018-05-05T04:18:04.376Z,88.60
2018-05-05T04:20:31.793Z,88.20
2018-05-05T04:22:59.200Z,88.90
2018-05-05T04:25:27.384Z,89.40
2018-05-05T04:27:55.596Z,89.70
2018-05-05T04:30:23.060Z,89.70
2018-05-05T04:32:50.471Z,89.70
2018-05-05T04:35:17.884Z,90.10
2018-05-05T04:37:46.093Z,90.10
2018-05-05T04:40:13.505Z,90.00
2018-05-05T04:42:40.921Z,88.90
2018-05-05T04:45:09.100Z,88.60
2018-05-05T04:47:37.619Z,87.90
2018-05-05T04:50:05.781Z,89.20
2018-05-05T04:52:33.989Z,89.20
2018-05-05T04:55:01.462Z,89.30
2018-05-05T04:57:28.868Z,88.50
2018-05-05T04:59:56.276Z,88.70
2018-05-05T05:02:24.899Z,88.50
2018-05-05T05:04:53.076Z,87.90
2018-05-05T05:07:20.533Z,87.90
2018-05-05T05:09:48.753Z,87.20
2018-05-05T05:12:16.892Z,87.10
2018-05-05T05:14:45.115Z,87.30
2018-05-05T05:17:12.582Z,87.30
2018-05-05T05:19:39.996Z,87.30
2018-05-05T05:22:07.408Z,85.90
2018-05-05T05:24:34.890Z,86.80
2018-05-05T05:27:02.307Z,86.70
2018-05-05T05:29:29.731Z,85.70
2018-05-05T05:31:57.896Z,84.70
2018-05-05T05:34:26.077Z,85.30
2018-05-05T05:36:54.261Z,84.60
2018-05-05T05:39:22.471Z,84.70
2018-05-05T05:41:50.627Z,83.90
2018-05-05T05:44:18.128Z,83.90
2018-05-05T05:46:45.544Z,83.90
2018-05-05T05:49:12.952Z,84.00
2018-05-05T05:51:41.140Z,83.90
2018-05-05T05:54:09.316Z,84.20
2018-05-05T05:56:37.495Z,83.20
2018-05-05T05:59:04.904Z,83.20
2018-05-05T06:01:32.317Z,83.50
2018-05-05T06:04:00.494Z,82.30
2018-05-05T06:06:27.908Z,82.30
2018-05-05T06:08:56.080Z,81.40
2018-05-05T06:11:24.260Z,81.70
2018-05-05T06:13:51.680Z,81.60
2018-05-05T06:16:19.089Z,80.90
2018-05-05T06:18:46.600Z,80.80
2018-05-05T06:21:14.009Z,80.30
2018-05-05T06:23:41.425Z,78.00
2018-05-05T06:26:09.629Z,73.50
2018-05-05T06:28:37.035Z,73.50
2018-05-05T06:31:04.449Z,70.50
2018-05-05T06:33:32.652Z,65.10
2018-05-05T06:36:00.061Z,65.10
2018-05-05T06:38:27.477Z,63.60
2018-05-05T06:40:55.652Z,57.70
2018-05-05T06:43:23.890Z,54.90
2018-05-05T06:45:52.012Z,51.70
2018-05-05T06:48:19.521Z,51.70
2018-05-05T06:50:46.993Z,51.50
2018-05-05T06:53:14.460Z,49.90
2018-05-05T06:55:41.872Z,47.40
2018-05-05T06:58:09.311Z,47.60
2018-05-05T07:00:36.771Z,47.80
2018-05-05T07:03:04.185Z,47.10
2018-05-05T07:05:31.600Z,45.40
2018-05-05T07:07:59.012Z,44.70
2018-05-05T07:10:26.437Z,43.90
2018-05-05T07:12:53.873Z,43.20
2018-05-05T07:15:21.312Z,42.40
2018-05-05T07:17:48.697Z,41.30
2018-05-05T07:20:16.120Z,41.50
2018-05-05T07:22:43.533Z,42.40
2018-05-05T07:25:10.970Z,42.30
2018-05-05T07:27:38.364Z,42.80
2018-05-05T07:30:05.784Z,42.70
2018-05-05T07:32:33.969Z,44.70
2018-05-05T07:35:02.168Z,46.00
2018-05-05T07:37:29.575Z,45.90
2018-05-05T07:39:57.031Z,46.30
2018-05-05T07:42:24.440Z,47.00
2018-05-05T07:44:52.015Z,48.20
2018-05-05T07:47:19.364Z,47.40
2018-05-05T07:49:46.789Z,49.00
2018-05-05T07:52:14.207Z,49.20
2018-05-05T07:54:41.611Z,50.10
2018-05-05T07:57:09.792Z,49.60
2018-05-05T07:59:37.968Z,50.50
2018-05-05T08:02:05.469Z,50.50
2018-05-05T08:04:32.880Z,51.50
2018-05-05T08:07:00.296Z,50.80
2018-05-05T08:09:28.473Z,51.80
2018-05-05T08:11:56.656Z,51.80
2018-05-05T08:14:24.845Z,52.20
2018-05-05T08:16:52.274Z,52.20
2018-05-05T08:19:19.660Z,51.80
2018-05-05T08:21:47.085Z,52.40
2018-05-05T08:24:14.488Z,52.50
2018-05-05T08:26:41.908Z,52.70
2018-05-05T08:29:10.099Z,51.70
2018-05-05T08:31:38.268Z,51.70
2018-05-05T08:34:05.685Z,51.70
2018-05-05T08:36:33.092Z,52.00
2018-05-05T08:39:00.509Z,52.00
2018-05-05T08:41:27.920Z,51.00
2018-05-05T08:43:55.341Z,52.40
2018-05-05T08:46:22.746Z,52.60
2018-05-05T08:48:50.165Z,51.90
2018-05-05T08:51:18.349Z,52.40
2018-05-05T08:53:46.551Z,51.60
2018-05-05T08:56:14.025Z,51.50
2018-05-05T08:58:41.461Z,52.10
2018-05-05T09:01:08.870Z,52.90
2018-05-05T09:03:36.293Z,52.60
2018-05-05T09:06:03.705Z,53.00
2018-05-05T09:08:31.177Z,53.00
2018-05-05T09:10:58.647Z,51.10
2018-05-05T09:13:26.061Z,52.70
2018-05-05T09:15:53.473Z,52.70
2018-05-05T09:18:20.892Z,52.20
2018-05-05T09:20:48.309Z,52.50
2018-05-05T09:23:16.496Z,51.30
2018-05-05T09:25:44.692Z,51.60
2018-05-05T09:28:12.300Z,51.60
2018-05-05T09:30:39.737Z,50.60
2018-05-05T09:33:07.144Z,51.30
2018-05-05T09:35:34.588Z,51.00
2018-05-05T09:38:02.157Z,51.50
2018-05-05T09:40:30.324Z,51.80
2018-05-05T09:42:58.526Z,51.30
2018-05-05T09:45:25.933Z,51.20
2018-05-05T09:47:53.357Z,50.50
2018-05-05T09:50:20.772Z,51.10
2018-05-05T09:52:48.180Z,49.90
2018-05-05T09:55:16.369Z,51.80
2018-05-05T09:57:44.568Z,52.20
2018-05-05T10:00:11.989Z,52.20
2018-05-05T10:02:39.392Z,51.60
2018-05-05T10:05:07.572Z,50.80
2018-05-05T10:07:35.743Z,52.00
2018-05-05T10:10:03.158Z,51.90
2018-05-05T10:12:30.570Z,49.90
2018-05-05T10:14:57.981Z,51.50
2018-05-05T10:17:25.396Z,50.50
2018-05-05T10:22:30.860Z,50.80
2018-05-05T10:24:58.272Z,49.20
2018-05-05T10:27:25.705Z,50.80
2018-05-05T10:29:53.116Z,50.60
2018-05-05T10:32:20.537Z,49.30
2018-05-05T10:34:48.013Z,49.40
2018-05-05T10:37:15.429Z,49.10
2018-05-05T10:39:42.843Z,49.40
2018-05-05T10:42:10.264Z,48.70
2018-05-05T10:44:37.684Z,47.70
2018-05-05T10:47:05.154Z,47.40
2018-05-05T10:49:32.625Z,47.60
2018-05-05T10:52:00.100Z,47.50
2018-05-05T10:54:27.514Z,47.70
2018-05-05T10:56:54.951Z,47.80
2018-05-05T10:59:23.132Z,47.70
2018-05-05T11:01:50.608Z,47.70
2018-05-05T11:04:18.074Z,47.40
2018-05-05T11:06:45.561Z,47.00
2018-05-05T11:09:12.983Z,47.20
2018-05-05T11:11:40.409Z,47.40
2018-05-05T11:14:07.829Z,47.00
2018-05-05T11:16:35.243Z,46.20
2018-05-05T11:19:02.706Z,47.30
2018-05-05T11:21:30.128Z,46.60
2018-05-05T11:23:57.644Z,46.40
2018-05-05T11:26:25.117Z,46.70
2018-05-05T11:28:52.698Z,45.90
2018-05-05T11:31:20.858Z,45.10
2018-05-05T11:33:49.048Z,45.80
2018-05-05T11:36:17.258Z,45.80
2018-05-05T11:38:45.273Z,45.70
2018-05-05T11:41:12.688Z,45.80
2018-05-05T11:43:40.881Z,46.00
2018-05-05T11:46:09.060Z,45.70
2018-05-05T11:48:37.268Z,45.80
2018-05-05T11:51:04.744Z,45.70
2018-05-05T11:53:32.180Z,45.30
2018-05-05T11:55:59.688Z,44.80
2018-05-05T11:58:27.157Z,46.10
2018-05-05T12:00:54.634Z,46.10
2018-05-05T12:03:22.025Z,45.80
2018-05-05T12:05:49.448Z,45.60
2018-05-05T12:08:16.860Z,44.90
2018-05-05T12:10:44.352Z,45.10
2018-05-05T12:13:12.468Z,45.90
2018-05-05T12:15:40.660Z,45.80
2018-05-05T12:18:08.845Z,45.30
2018-05-05T12:20:37.027Z,46.00
2018-05-05T12:23:05.245Z,46.00
2018-05-05T12:25:32.665Z,46.00
2018-05-05T12:28:00.180Z,46.50
2018-05-05T12:30:27.686Z,45.50
2018-05-05T12:32:55.086Z,45.20
2018-05-05T12:35:22.633Z,45.40
2018-05-05T12:37:49.922Z,45.20
2018-05-05T12:40:17.340Z,45.30
2018-05-05T12:42:44.769Z,45.90
2018-05-05T12:45:12.251Z,45.00
2018-05-05T12:47:40.456Z,45.00
2018-05-05T12:50:07.877Z,45.00
2018-05-05T12:52:35.396Z,45.40
2018-05-05T12:55:02.806Z,45.50
2018-05-05T12:57:30.243Z,45.90
2018-05-05T12:59:57.643Z,45.30
2018-05-05T13:02:25.081Z,45.40
2018-05-05T13:04:52.484Z,45.50
2018-05-05T13:07:19.911Z,46.30
2018-05-05T13:09:47.321Z,45.90
2018-05-05T13:12:14.745Z,46.40
2018-05-05T13:14:42.226Z,46.20
2018-05-05T13:17:09.698Z,47.20
2018-05-05T13:19:37.104Z,45.80
2018-05-05T13:22:04.528Z,46.50
2018-05-05T13:24:31.992Z,45.80
2018-05-05T13:26:59.464Z,45.50
2018-05-05T13:29:27.011Z,46.60
2018-05-05T13:31:54.405Z,45.80
2018-05-05T13:34:21.875Z,47.30
2018-05-05T13:36:49.280Z,47.20
2018-05-05T13:39:16.703Z,47.60
2018-05-05T13:41:44.194Z,47.00
2018-05-05T13:44:11.767Z,47.20
2018-05-05T13:46:39.959Z,47.10
2018-05-05T13:49:07.380Z,47.10
2018-05-05T13:51:34.888Z,47.20
2018-05-05T13:54:02.369Z,46.90
2018-05-05T13:56:29.780Z,47.50
2018-05-05T13:58:57.197Z,47.20
2018-05-05T14:01:24.768Z,46.90
2018-05-05T14:03:52.240Z,46.90
2018-05-05T14:06:19.716Z,47.00
2018-05-05T14:08:47.183Z,46.40
2018-05-05T14:11:14.595Z,46.00
2018-05-05T14:13:42.020Z,46.70
2018-05-05T14:16:09.441Z,46.30
2018-05-05T14:18:36.969Z,45.10
2018-05-05T14:21:04.376Z,46.20
2018-05-05T14:23:31.792Z,45.30
2018-05-05T14:25:59.221Z,46.90
2018-05-05T14:28:26.636Z,45.70
2018-05-05T14:30:54.052Z,46.10
2018-05-05T14:33:21.472Z,47.00
2018-05-05T14:35:48.943Z,46.90
2018-05-05T14:38:16.356Z,46.60
2018-05-05T14:40:43.885Z,46.40
2018-05-05T14:43:11.353Z,47.20
2018-05-05T14:45:38.772Z,46.90
2018-05-05T14:48:06.203Z,46.40
2018-05-05T14:50:33.609Z,47.50
2018-05-05T14:53:01.043Z,48.30
2018-05-05T14:55:28.453Z,48.40
2018-05-05T14:57:55.867Z,48.20
2018-05-05T15:00:23.288Z,47.50
2018-05-05T15:02:50.709Z,47.50
2018-05-05T15:05:18.128Z,48.60
2018-05-05T15:07:45.553Z,50.20
2018-05-05T15:10:12.965Z,48.80
2018-05-05T15:12:40.486Z,48.70
2018-05-05T15:15:07.961Z,47.60
2018-05-05T15:17:35.429Z,48.90
2018-05-05T15:20:02.908Z,49.20
2018-05-05T15:22:30.305Z,49.00
2018-05-05T15:24:57.745Z,49.50
2018-05-05T15:27:25.217Z,49.70
2018-05-05T15:29:52.618Z,49.20
2018-05-05T15:32:20.037Z,49.30
2018-05-05T15:34:47.449Z,49.70
2018-05-05T15:37:14.868Z,49.00
2018-05-05T15:39:43.045Z,51.30
2018-05-05T15:42:11.228Z,49.80
2018-05-05T15:44:39.404Z,51.40
2018-05-05T15:47:06.923Z,51.40
2018-05-05T15:49:34.393Z,50.70
2018-05-05T15:52:02.554Z,51.10
2018-05-05T15:54:30.756Z,51.40
2018-05-05T15:56:58.231Z,51.40
2018-05-05T15:59:25.812Z,51.10
2018-05-05T16:01:53.216Z,51.80
2018-05-05T16:04:20.636Z,51.40
2018-05-05T16:06:48.053Z,53.30
2018-05-05T16:09:15.464Z,52.30
2018-05-05T16:11:43.652Z,52.80
2018-05-05T16:14:11.861Z,53.20
2018-05-05T16:16:39.272Z,53.10
2018-05-05T16:19:06.792Z,53.40
2018-05-05T16:21:34.265Z,54.00
2018-05-05T16:24:01.677Z,54.30
2018-05-05T16:26:29.088Z,54.00
2018-05-05T16:28:57.289Z,53.60
2018-05-05T16:31:24.699Z,53.60
2018-05-05T16:33:52.121Z,53.70
2018-05-05T16:36:19.537Z,53.70
2018-05-05T16:38:46.953Z,53.10
2018-05-05T16:41:15.128Z,54.20
2018-05-05T16:43:43.333Z,53.90
2018-05-05T16:46:10.809Z,53.90
2018-05-05T16:48:38.221Z,53.70
2018-05-05T16:51:05.646Z,53.90
2018-05-05T16:53:33.817Z,53.10
2018-05-05T16:56:01.989Z,53.20
2018-05-05T16:58:29.503Z,53.20
2018-05-05T17:00:56.896Z,54.10
2018-05-05T17:03:24.322Z,52.70
2018-05-05T17:05:51.804Z,53.80
2018-05-05T17:08:19.996Z,53.80
2018-05-05T17:10:47.393Z,53.80
2018-05-05T17:13:14.820Z,54.70
2018-05-05T17:15:42.233Z,54.20
2018-05-05T17:18:09.644Z,54.50
2018-05-05T17:20:37.829Z,54.80
2018-05-05T17:23:06.005Z,54.70
2018-05-05T17:25:33.425Z,54.70
2018-05-05T17:28:00.853Z,55.00
2018-05-05T17:30:29.056Z,56.20
2018-05-05T17:32:56.544Z,56.00
2018-05-05T17:35:24.000Z,55.30
2018-05-05T17:37:51.468Z,54.60
2018-05-05T17:40:18.952Z,54.70
2018-05-05T17:42:46.422Z,54.70
2018-05-05T17:45:13.764Z,54.70
2018-05-05T17:47:41.941Z,54.10
2018-05-05T17:50:09.354Z,54.00
2018-05-05T17:52:36.761Z,54.70
2018-05-05T17:55:04.271Z,55.40
2018-05-05T17:57:31.743Z,55.50
2018-05-05T17:59:59.165Z,56.40
2018-05-05T18:02:26.574Z,55.20
2018-05-05T18:04:54.780Z,55.60
2018-05-05T18:07:22.252Z,55.60
2018-05-05T18:09:49.716Z,55.30
2018-05-05T18:12:17.131Z,55.60
2018-05-05T18:14:44.540Z,56.00
2018-05-05T18:17:12.720Z,55.60
2018-05-05T18:19:40.132Z,55.60
2018-05-05T18:22:07.593Z,56.40
2018-05-05T18:24:35.001Z,56.70
2018-05-05T18:27:02.420Z,56.60
2018-05-05T18:29:30.599Z,57.00
2018-05-05T18:31:58.852Z,57.70
2018-05-05T18:34:26.186Z,57.70
2018-05-05T18:36:53.641Z,57.70
2018-05-05T18:39:21.129Z,58.00
2018-05-05T18:41:48.581Z,57.90
2018-05-05T18:44:16.057Z,57.90
2018-05-05T18:46:43.521Z,58.20
2018-05-05T18:49:10.932Z,58.70
2018-05-05T18:51:38.464Z,57.90
2018-05-05T18:54:05.871Z,58.50
2018-05-05T18:56:33.290Z,59.10
2018-05-05T18:59:01.464Z,58.20
2018-05-05T19:01:29.672Z,58.00
2018-05-05T19:03:57.089Z,58.00
2018-05-05T19:06:24.497Z,58.30
2018-05-05T19:08:52.697Z,59.60
2018-05-05T19:11:20.104Z,59.60
2018-05-05T19:13:47.522Z,59.10
2018-05-05T19:16:15.796Z,59.50
2018-05-05T19:18:43.881Z,59.70
2018-05-05T19:21:11.292Z,59.70
2018-05-05T19:23:38.754Z,60.20
2018-05-05T19:26:06.212Z,60.60
2018-05-05T19:28:33.677Z,60.30
2018-05-05T19:31:01.872Z,60.60
2018-05-05T19:33:29.289Z,60.60
2018-05-05T19:35:56.705Z,61.40
2018-05-05T19:38:24.120Z,61.80
2018-05-05T19:40:51.528Z,62.20
2018-05-05T19:43:19.709Z,63.00
2018-05-05T19:45:47.884Z,63.70
2018-05-05T19:48:15.397Z,63.60
2018-05-05T19:50:42.803Z,63.60
2018-05-05T19:53:10.221Z,63.50
2018-05-05T19:55:38.421Z,63.40
2018-05-05T19:58:05.889Z,63.40
2018-05-05T20:00:33.371Z,63.20
2018-05-05T20:03:00.789Z,63.30
2018-05-05T20:05:28.197Z,63.30
2018-05-05T20:07:55.604Z,63.60
2018-05-05T20:10:23.016Z,64.40
2018-05-05T20:12:51.196Z,64.80
2018-05-05T20:15:19.376Z,63.80
2018-05-05T20:17:46.786Z,63.80
2018-05-05T20:20:14.228Z,63.40
2018-05-05T20:22:42.442Z,64.70
2018-05-05T20:25:09.856Z,64.70
2018-05-05T20:27:37.264Z,65.70
2018-05-05T20:30:05.449Z,66.40
2018-05-05T20:32:33.662Z,65.60
2018-05-05T20:35:01.116Z,65.60
2018-05-05T20:37:28.525Z,65.80
2018-05-05T20:39:55.941Z,65.50
2018-05-05T20:42:24.141Z,66.30
2018-05-05T20:44:51.624Z,66.30
2018-05-05T20:47:19.089Z,66.90
2018-05-05T20:49:46.562Z,66.60
2018-05-05T20:52:13.977Z,67.60
2018-05-05T20:54:41.388Z,68.10
2018-05-05T20:57:09.567Z,67.40
2018-05-05T20:59:37.740Z,68.20
2018-05-05T21:02:05.952Z,68.80
2018-05-05T21:04:33.360Z,68.00
2018-05-05T21:07:00.780Z,67.80
2018-05-05T21:09:28.976Z,67.60
2018-05-05T21:11:56.388Z,67.60
2018-05-05T21:14:23.801Z,69.00
2018-05-05T21:16:51.993Z,67.60
2018-05-05T21:19:20.188Z,68.70
2018-05-05T21:21:47.608Z,68.70
2018-05-05T21:24:15.029Z,68.40
2018-05-05T21:26:42.436Z,69.60
2018-05-05T21:29:09.873Z,69.50
2018-05-05T21:31:37.300Z,70.30
2018-05-05T21:34:04.709Z,70.30
2018-05-05T21:36:32.140Z,69.70
2018-05-05T21:38:59.649Z,71.60
2018-05-05T21:41:27.121Z,70.20
2018-05-05T21:43:54.532Z,70.80
2018-05-05T21:46:21.946Z,69.80
2018-05-05T21:48:50.129Z,70.40
2018-05-05T21:51:18.309Z,69.90
2018-05-05T21:53:46.494Z,71.40
2018-05-05T21:56:14.669Z,70.90
2018-05-05T21:58:42.083Z,70.80
2018-05-05T22:01:09.492Z,70.50
2018-05-05T22:03:36.914Z,69.80
2018-05-05T22:06:04.384Z,69.90
2018-05-05T22:08:31.804Z,70.80
2018-05-05T22:10:59.226Z,71.00
2018-05-05T22:13:26.645Z,70.00
2018-05-05T22:15:54.161Z,70.60
2018-05-05T22:18:21.885Z,71.00
2018-05-05T22:20:49.296Z,71.30
2018-05-05T22:23:16.717Z,71.10
2018-05-05T22:25:44.151Z,71.60
2018-05-05T22:28:11.559Z,71.50
2018-05-05T22:30:38.977Z,72.20
2018-05-05T22:33:06.392Z,71.80
2018-05-05T22:35:33.801Z,72.60
2018-05-05T22:38:01.994Z,72.50
2018-05-05T22:40:30.196Z,72.50
2018-05-05T22:42:57.670Z,72.30
2018-05-05T22:45:25.083Z,72.10
2018-05-05T22:47:52.494Z,72.40
2018-05-05T22:50:19.982Z,72.30
2018-05-05T22:52:47.445Z,72.70
2018-05-05T22:55:14.856Z,72.40
2018-05-05T22:57:42.285Z,72.50
2018-05-05T23:00:09.701Z,72.50
2018-05-05T23:02:37.108Z,72.90
2018-05-05T23:05:05.288Z,73.00
2018-05-05T23:07:33.465Z,72.40
2018-05-05T23:10:01.649Z,72.70
2018-05-05T23:12:29.060Z,72.70
2018-05-05T23:14:56.516Z,73.60
2018-05-05T23:17:23.989Z,73.30
2018-05-05T23:19:51.453Z,74.00
2018-05-05T23:22:18.924Z,73.60
2018-05-05T23:24:46.398Z,73.60
2018-05-05T23:27:13.800Z,73.60
2018-05-05T23:29:41.220Z,74.20
2018-05-05T23:32:09.397Z,73.20
2018-05-05T23:34:37.576Z,74.10
2018-05-05T23:37:04.990Z,73.90
2018-05-05T23:39:32.448Z,73.70
2018-05-05T23:41:59.857Z,73.80
2018-05-05T23:44:27.264Z,73.80
2018-05-05T23:46:55.444Z,75.00
2018-05-05T23:49:23.620Z,75.10
2018-05-05T23:51:51.037Z,75.00
2018-05-05T23:54:18.456Z,76.00
2018-05-05T23:56:45.873Z,76.40
2018-05-05T23:59:13.281Z,76.30
